createdAt,value
2018-03-30T00:00:27.203Z,-2.08
2018-03-30T00:01:27.156Z,-2.10
2018-03-30T00:02:27.113Z,-2.29
2018-03-30T00:03:27.088Z,-2.21
2018-03-30T00:04:27.051Z,-2.39
2018-03-30T00:05:26.976Z,-2.37
2018-03-30T00:06:26.948Z,-2.37
2018-03-30T00:07:26.907Z,-2.09
2018-03-30T00:08:26.904Z,-2.02
2018-03-30T00:09:26.810Z,-1.82
2018-03-30T00:10:26.773Z,-1.62
2018-03-30T00:11:26.762Z,-1.64
2018-03-30T00:12:26.675Z,-1.66
2018-03-30T00:13:26.627Z,-1.69
2018-03-30T00:14:26.616Z,-1.64
2018-03-30T00:15:26.507Z,-1.69
2018-03-30T00:16:26.495Z,-1.67
2018-03-30T00:17:26.447Z,-1.69
2018-03-30T00:18:26.406Z,-1.66
2018-03-30T00:19:26.358Z,-1.66
2018-03-30T00:20:26.294Z,-1.56
2018-03-30T00:21:26.227Z,-1.64
2018-03-30T00:22:26.197Z,-1.62
2018-03-30T00:23:26.143Z,-1.67
2018-03-30T00:24:26.108Z,-1.66
2018-03-30T00:25:26.062Z,-1.56
2018-03-30T00:26:26.041Z,-1.69
2018-03-30T00:27:26.003Z,-1.67
2018-03-30T00:28:25.905Z,-1.66
2018-03-30T00:29:25.897Z,-1.62
2018-03-30T00:30:25.871Z,-1.51
2018-03-30T00:31:25.801Z,-1.51
2018-03-30T00:32:25.777Z,-1.46
2018-03-30T00:33:25.694Z,-1.61
2018-03-30T00:34:25.683Z,-1.61
2018-03-30T00:35:25.621Z,-1.69
2018-03-30T00:36:25.541Z,-1.69
2018-03-30T00:37:25.518Z,-1.76
2018-03-30T00:38:25.474Z,-1.69
2018-03-30T00:39:25.433Z,-1.77
2018-03-30T00:40:25.368Z,-1.76
2018-03-30T00:41:25.353Z,-1.74
2018-03-30T00:42:25.260Z,-1.80
2018-03-30T00:43:25.229Z,-1.73
2018-03-30T00:44:25.167Z,-1.74
2018-03-30T00:45:25.153Z,-1.74
2018-03-30T00:46:25.104Z,-1.87
2018-03-30T00:47:25.022Z,-1.80
2018-03-30T00:48:24.979Z,-1.82
2018-03-30T00:49:24.948Z,-1.79
2018-03-30T00:50:24.934Z,-1.80
2018-03-30T00:51:24.875Z,-1.79
2018-03-30T00:52:24.823Z,-1.72
2018-03-30T00:53:24.747Z,-1.62
2018-03-30T00:54:24.754Z,-1.84
2018-03-30T00:55:24.682Z,-1.91
2018-03-30T00:56:25.236Z,-2.06
2018-03-30T00:57:24.561Z,-2.30
2018-03-30T00:58:24.534Z,-2.32
2018-03-30T00:59:24.479Z,-2.49
2018-03-30T01:00:24.486Z,-2.58
2018-03-30T01:01:24.444Z,-2.74
2018-03-30T01:02:24.328Z,-2.70
2018-03-30T01:03:24.314Z,-2.49
2018-03-30T01:04:24.290Z,-2.27
2018-03-30T01:05:24.209Z,-2.06
2018-03-30T01:06:24.145Z,-1.94
2018-03-30T01:07:24.118Z,-1.92
2018-03-30T01:08:24.074Z,-1.94
2018-03-30T01:09:24.051Z,-1.92
2018-03-30T01:10:23.992Z,-2.03
2018-03-30T01:11:23.903Z,-2.08
2018-03-30T01:12:23.915Z,-2.02
2018-03-30T01:13:23.833Z,-2.03
2018-03-30T01:14:23.774Z,-2.08
2018-03-30T01:15:23.719Z,-2.03
2018-03-30T01:16:23.671Z,-2.05
2018-03-30T01:17:23.624Z,-2.10
2018-03-30T01:18:23.635Z,-2.29
2018-03-30T01:19:23.536Z,-2.27
2018-03-30T01:20:24.236Z,-2.21
2018-03-30T01:21:23.462Z,-1.91
2018-03-30T01:22:23.445Z,-1.85
2018-03-30T01:23:23.391Z,-1.87
2018-03-30T01:24:23.322Z,-1.85
2018-03-30T01:25:23.281Z,-1.79
2018-03-30T01:26:23.272Z,-1.87
2018-03-30T01:27:23.156Z,-1.85
2018-03-30T01:28:23.132Z,-1.79
2018-03-30T01:29:23.135Z,-1.90
2018-03-30T01:30:23.025Z,-1.87
2018-03-30T01:31:22.997Z,-1.90
2018-03-30T01:32:22.944Z,-1.97
2018-03-30T01:33:22.914Z,-1.97
2018-03-30T01:34:22.886Z,-2.05
2018-03-30T01:35:22.793Z,-2.05
2018-03-30T01:36:22.791Z,-2.10
2018-03-30T01:37:22.771Z,-2.15
2018-03-30T01:38:22.679Z,-2.29
2018-03-30T01:39:22.638Z,-2.39
2018-03-30T01:40:22.592Z,-2.34
2018-03-30T01:41:22.521Z,-2.27
2018-03-30T01:42:22.475Z,-2.16
2018-03-30T01:43:22.507Z,-2.06
2018-03-30T01:44:22.366Z,-2.02
2018-03-30T01:45:23.235Z,-1.98
2018-03-30T01:46:22.315Z,-2.02
2018-03-30T01:47:22.241Z,-1.97
2018-03-30T01:48:22.232Z,-1.87
2018-03-30T01:49:22.178Z,-1.90
2018-03-30T01:50:22.095Z,-2.02
2018-03-30T01:51:22.074Z,-2.15
2018-03-30T01:52:22.046Z,-2.16
2018-03-30T01:53:21.943Z,-2.05
2018-03-30T01:54:21.901Z,-2.00
2018-03-30T01:55:21.862Z,-1.90
2018-03-30T01:56:21.799Z,-1.88
2018-03-30T01:57:21.791Z,-1.88
2018-03-30T01:58:21.759Z,-2.02
2018-03-30T01:59:21.695Z,-2.24
2018-03-30T02:00:21.669Z,-2.29
2018-03-30T02:01:21.570Z,-2.23
2018-03-30T02:02:21.565Z,-2.15
2018-03-30T02:03:21.551Z,-2.16
2018-03-30T02:04:21.435Z,-2.09
2018-03-30T02:05:21.380Z,-2.05
2018-03-30T02:06:21.346Z,-2.12
2018-03-30T02:07:21.343Z,-2.10
2018-03-30T02:08:21.241Z,-2.13
2018-03-30T02:09:21.220Z,-2.06
2018-03-30T02:10:21.186Z,-2.06
2018-03-30T02:11:21.124Z,-2.18
2018-03-30T02:12:21.131Z,-2.15
2018-03-30T02:13:21.010Z,-2.10
2018-03-30T02:14:20.988Z,-2.18
2018-03-30T02:15:21.744Z,-2.15
2018-03-30T02:16:20.889Z,-2.15
2018-03-30T02:17:20.878Z,-2.27
2018-03-30T02:18:20.800Z,-2.37
2018-03-30T02:19:20.734Z,-2.32
2018-03-30T02:20:21.239Z,-2.40
2018-03-30T02:21:20.660Z,-2.40
2018-03-30T02:22:20.590Z,-2.39
2018-03-30T02:23:20.544Z,-2.37
2018-03-30T02:24:20.487Z,-2.32
2018-03-30T02:25:20.462Z,-2.46
2018-03-30T02:26:20.416Z,-2.52
2018-03-30T02:27:20.568Z,-2.63
2018-03-30T02:28:20.352Z,-2.70
2018-03-30T02:29:20.273Z,-2.92
2018-03-30T02:30:20.236Z,-2.97
2018-03-30T02:31:20.165Z,-3.06
2018-03-30T02:32:20.122Z,-3.07
2018-03-30T02:33:20.084Z,-3.14
2018-03-30T02:34:20.053Z,-3.25
2018-03-30T02:35:20.029Z,-3.35
2018-03-30T02:36:19.995Z,-3.48
2018-03-30T02:37:19.889Z,-3.45
2018-03-30T02:38:19.881Z,-3.48
2018-03-30T02:39:19.792Z,-3.36
2018-03-30T02:40:19.794Z,-3.07
2018-03-30T02:41:19.711Z,-2.77
2018-03-30T02:42:19.658Z,-2.61
2018-03-30T02:43:19.636Z,-2.67
2018-03-30T02:44:19.566Z,-2.60
2018-03-30T02:45:19.607Z,-2.53
2018-03-30T02:46:19.488Z,-2.42
2018-03-30T02:47:19.451Z,-2.43
2018-03-30T02:48:19.422Z,-2.46
2018-03-30T02:49:19.344Z,-2.60
2018-03-30T02:50:19.275Z,-2.56
2018-03-30T02:51:19.287Z,-2.66
2018-03-30T02:52:19.228Z,-2.58
2018-03-30T02:53:19.168Z,-2.60
2018-03-30T02:54:19.086Z,-2.48
2018-03-30T02:55:19.052Z,-2.58
2018-03-30T02:56:18.989Z,-2.50
2018-03-30T02:57:19.016Z,-2.50
2018-03-30T02:58:18.910Z,-2.52
2018-03-30T02:59:18.893Z,-2.50
2018-03-30T03:00:18.824Z,-2.68
2018-03-30T03:01:19.739Z,-2.63
2018-03-30T03:02:18.763Z,-2.61
2018-03-30T03:03:19.244Z,-2.61
2018-03-30T03:04:18.640Z,-2.68
2018-03-30T03:05:18.582Z,-2.73
2018-03-30T03:06:18.542Z,-2.71
2018-03-30T03:07:18.498Z,-2.66
2018-03-30T03:08:19.245Z,-2.66
2018-03-30T03:09:18.442Z,-2.68
2018-03-30T03:10:18.343Z,-2.77
2018-03-30T03:11:18.286Z,-2.78
2018-03-30T03:12:18.290Z,-2.94
2018-03-30T03:13:18.188Z,-2.92
2018-03-30T03:14:18.740Z,-2.78
2018-03-30T03:15:18.127Z,-2.79
2018-03-30T03:16:18.091Z,-2.97
2018-03-30T03:17:18.032Z,-2.88
2018-03-30T03:18:18.737Z,-2.96
2018-03-30T03:19:17.920Z,-2.91
2018-03-30T03:20:17.893Z,-2.88
2018-03-30T03:21:17.832Z,-2.84
2018-03-30T03:22:17.782Z,-2.70
2018-03-30T03:23:17.769Z,-2.70
2018-03-30T03:24:17.684Z,-2.77
2018-03-30T03:25:17.655Z,-2.77
2018-03-30T03:26:17.579Z,-2.60
2018-03-30T03:27:17.588Z,-2.64
2018-03-30T03:28:17.493Z,-2.68
2018-03-30T03:29:17.467Z,-2.68
2018-03-30T03:30:17.385Z,-2.67
2018-03-30T03:31:17.393Z,-2.66
2018-03-30T03:32:17.286Z,-2.68
2018-03-30T03:33:17.258Z,-2.77
2018-03-30T03:34:17.228Z,-2.81
2018-03-30T03:35:17.751Z,-2.79
2018-03-30T03:36:17.176Z,-2.82
2018-03-30T03:37:17.127Z,-2.85
2018-03-30T03:38:17.053Z,-2.74
2018-03-30T03:39:17.014Z,-2.78
2018-03-30T03:40:16.901Z,-2.84
2018-03-30T03:41:16.944Z,-2.82
2018-03-30T03:42:16.832Z,-2.86
2018-03-30T03:43:16.803Z,-2.85
2018-03-30T03:44:16.759Z,-2.81
2018-03-30T03:45:16.693Z,-2.82
2018-03-30T03:46:17.250Z,-2.79
2018-03-30T03:47:16.584Z,-2.73
2018-03-30T03:48:17.244Z,-2.68
2018-03-30T03:49:16.504Z,-2.67
2018-03-30T03:50:16.453Z,-2.71
2018-03-30T03:51:16.393Z,-2.67
2018-03-30T03:52:16.383Z,-2.56
2018-03-30T03:53:16.315Z,-2.60
2018-03-30T03:54:16.320Z,-2.67
2018-03-30T03:55:16.243Z,-2.67
2018-03-30T03:56:16.193Z,-2.67
2018-03-30T03:57:16.123Z,-2.70
2018-03-30T03:58:16.093Z,-2.66
2018-03-30T03:59:16.007Z,-2.53
2018-03-30T04:00:15.983Z,-2.67
2018-03-30T04:01:15.961Z,-2.71
2018-03-30T04:02:15.865Z,-2.88
2018-03-30T04:03:15.904Z,-2.78
2018-03-30T04:04:15.777Z,-2.77
2018-03-30T04:05:15.769Z,-2.77
2018-03-30T04:06:15.683Z,-2.67
2018-03-30T04:07:15.673Z,-2.66
2018-03-30T04:08:15.621Z,-2.60
2018-03-30T04:09:15.590Z,-2.64
2018-03-30T04:10:15.527Z,-2.63
2018-03-30T04:11:16.243Z,-2.64
2018-03-30T04:12:16.249Z,-2.67
2018-03-30T04:13:15.362Z,-2.67
2018-03-30T04:14:15.354Z,-2.60
2018-03-30T04:15:15.306Z,-2.68
2018-03-30T04:16:15.219Z,-2.67
2018-03-30T04:17:15.175Z,-2.67
2018-03-30T04:18:15.165Z,-2.78
2018-03-30T04:19:15.091Z,-2.81
2018-03-30T04:20:15.057Z,-2.70
2018-03-30T04:21:15.060Z,-2.81
2018-03-30T04:22:14.993Z,-2.78
2018-03-30T04:23:14.893Z,-2.64
2018-03-30T04:24:14.937Z,-2.63
2018-03-30T04:25:14.821Z,-2.67
2018-03-30T04:26:14.781Z,-2.68
2018-03-30T04:27:14.733Z,-2.58
2018-03-30T04:28:14.724Z,-2.64
2018-03-30T04:29:14.628Z,-2.66
2018-03-30T04:30:14.591Z,-2.70
2018-03-30T04:31:15.247Z,-2.53
2018-03-30T04:32:14.488Z,-2.49
2018-03-30T04:33:14.465Z,-2.53
2018-03-30T04:34:14.381Z,-2.45
2018-03-30T04:35:14.401Z,-2.60
2018-03-30T04:36:14.304Z,-2.55
2018-03-30T04:37:14.267Z,-2.60
2018-03-30T04:38:14.198Z,-2.56
2018-03-30T04:39:14.150Z,-2.49
2018-03-30T04:40:14.134Z,-2.37
2018-03-30T04:41:14.096Z,-2.39
2018-03-30T04:42:13.989Z,-2.37
2018-03-30T04:43:14.746Z,-2.35
2018-03-30T04:44:13.972Z,-2.45
2018-03-30T04:45:13.845Z,-2.42
2018-03-30T04:46:13.815Z,-2.24
2018-03-30T04:47:13.823Z,-2.20
2018-03-30T04:48:13.726Z,-2.24
2018-03-30T04:49:13.691Z,-2.32
2018-03-30T04:50:13.609Z,-2.27
2018-03-30T04:51:13.556Z,-2.26
2018-03-30T04:52:13.539Z,-2.48
2018-03-30T04:53:13.499Z,-2.45
2018-03-30T04:54:13.487Z,-2.56
2018-03-30T04:55:13.458Z,-2.60
2018-03-30T04:56:13.329Z,-2.74
2018-03-30T04:57:13.307Z,-2.79
2018-03-30T04:58:13.264Z,-2.79
2018-03-30T04:59:13.191Z,-2.79
2018-03-30T05:00:13.142Z,-2.64
2018-03-30T05:01:13.140Z,-2.60
2018-03-30T05:02:13.086Z,-2.46
2018-03-30T05:03:13.006Z,-2.42
2018-03-30T05:04:12.984Z,-2.40
2018-03-30T05:05:15.023Z,-2.34
2018-03-30T05:06:12.858Z,-2.37
2018-03-30T05:07:12.821Z,-2.20
2018-03-30T05:08:12.843Z,-2.32
2018-03-30T05:09:12.757Z,-2.32
2018-03-30T05:10:12.692Z,-2.34
2018-03-30T05:11:12.655Z,-2.30
2018-03-30T05:12:12.626Z,-2.29
2018-03-30T05:13:12.573Z,-2.24
2018-03-30T05:14:12.543Z,-2.43
2018-03-30T05:15:12.489Z,-2.40
2018-03-30T05:16:12.431Z,-2.63
2018-03-30T05:17:12.347Z,-2.63
2018-03-30T05:18:12.319Z,-2.55
2018-03-30T05:19:12.296Z,-2.43
2018-03-30T05:20:12.294Z,-2.21
2018-03-30T05:21:12.178Z,-2.26
2018-03-30T05:22:12.118Z,-2.30
2018-03-30T05:23:12.096Z,-2.24
2018-03-30T05:24:12.020Z,-2.29
2018-03-30T05:25:12.010Z,-2.15
2018-03-30T05:26:11.936Z,-2.09
2018-03-30T05:27:11.880Z,-1.97
2018-03-30T05:28:11.865Z,-1.98
2018-03-30T05:29:11.830Z,-1.98
2018-03-30T05:30:11.757Z,-2.02
2018-03-30T05:31:11.701Z,-1.98
2018-03-30T05:32:11.651Z,-2.00
2018-03-30T05:33:11.658Z,-1.98
2018-03-30T05:34:11.595Z,-1.79
2018-03-30T05:35:19.861Z,-1.79
2018-03-30T05:37:06.799Z,-1.76
2018-03-30T05:38:05.479Z,-1.79
2018-03-30T05:39:59.566Z,-1.59
2018-03-30T05:40:58.442Z,-1.52
2018-03-30T05:42:52.093Z,-1.37
2018-03-30T05:43:52.218Z,-1.38
2018-03-30T05:45:44.742Z,-1.30
2018-03-30T05:46:43.736Z,-1.16
2018-03-30T05:48:37.438Z,-1.12
2018-03-30T05:49:36.467Z,-1.10
2018-03-30T05:51:30.569Z,-1.05
2018-03-30T05:52:30.222Z,-1.09
2018-03-30T05:54:23.328Z,-1.10
2018-03-30T05:55:22.707Z,-1.10
2018-03-30T05:57:16.233Z,-0.92
2018-03-30T05:58:16.958Z,-0.85
2018-03-30T06:00:20.907Z,-0.72
2018-03-30T06:01:21.855Z,-0.57
2018-03-30T06:02:21.237Z,-0.58
2018-03-30T06:03:21.715Z,-0.57
2018-03-30T06:04:20.470Z,-0.54
2018-03-30T06:05:20.241Z,-0.52
2018-03-30T06:06:21.588Z,-0.52
2018-03-30T06:07:20.023Z,-0.43
2018-03-30T06:08:19.976Z,-0.36
2018-03-30T06:09:19.949Z,-0.25
2018-03-30T06:10:19.906Z,-0.11
2018-03-30T06:11:19.841Z,-0.11
2018-03-30T06:12:19.899Z,0.03
2018-03-30T06:13:19.804Z,0.03
2018-03-30T06:14:19.723Z,0.04
2018-03-30T06:15:19.679Z,0.08
2018-03-30T06:16:19.648Z,0.11
2018-03-30T06:17:19.601Z,0.08
2018-03-30T06:18:19.520Z,0.17
2018-03-30T06:19:19.495Z,0.26
2018-03-30T06:20:19.457Z,0.32
2018-03-30T06:21:19.375Z,0.23
2018-03-30T06:22:19.334Z,0.39
2018-03-30T06:23:19.287Z,0.44
2018-03-30T06:24:19.262Z,0.50
2018-03-30T06:25:19.202Z,0.44
2018-03-30T06:26:19.153Z,0.51
2018-03-30T06:27:19.137Z,0.65
2018-03-30T06:28:19.088Z,0.68
2018-03-30T06:29:19.066Z,0.91
2018-03-30T06:30:18.997Z,0.98
2018-03-30T06:31:18.976Z,1.04
2018-03-30T06:32:18.921Z,0.91
2018-03-30T06:33:18.846Z,0.84
2018-03-30T06:34:18.816Z,0.86
2018-03-30T06:35:18.784Z,0.76
2018-03-30T06:36:18.725Z,0.96
2018-03-30T06:37:18.689Z,1.20
2018-03-30T06:38:18.658Z,1.55
2018-03-30T06:39:18.598Z,1.65
2018-03-30T06:40:18.542Z,1.42
2018-03-30T06:41:18.568Z,1.18
2018-03-30T06:42:18.454Z,1.12
2018-03-30T06:43:18.428Z,1.24
2018-03-30T06:44:18.410Z,1.23
2018-03-30T06:45:18.354Z,1.42
2018-03-30T06:46:18.325Z,1.54
2018-03-30T06:47:18.227Z,1.70
2018-03-30T06:48:18.201Z,1.68
2018-03-30T06:49:18.220Z,1.81
2018-03-30T06:50:18.234Z,1.79
2018-03-30T06:51:18.093Z,1.42
2018-03-30T06:52:18.025Z,1.52
2018-03-30T06:53:17.965Z,1.83
2018-03-30T06:54:17.934Z,1.76
2018-03-30T06:55:17.943Z,1.79
2018-03-30T06:56:17.862Z,1.79
2018-03-30T06:57:17.816Z,1.60
2018-03-30T06:58:17.769Z,1.70
2018-03-30T06:59:17.747Z,2.14
2018-03-30T07:00:17.718Z,2.52
2018-03-30T07:01:17.653Z,3.28
2018-03-30T07:02:17.627Z,3.86
2018-03-30T07:03:17.597Z,4.37
2018-03-30T07:04:17.537Z,4.69
2018-03-30T07:05:17.479Z,5.04
2018-03-30T07:06:17.426Z,5.35
2018-03-30T07:07:17.420Z,5.61
2018-03-30T07:08:17.359Z,6.06
2018-03-30T07:09:17.389Z,6.19
2018-03-30T07:10:17.313Z,6.28
2018-03-30T07:11:17.237Z,6.25
2018-03-30T07:12:17.194Z,6.17
2018-03-30T07:13:17.188Z,6.00
2018-03-30T07:14:17.237Z,5.57
2018-03-30T07:15:17.081Z,6.56
2018-03-30T07:16:17.088Z,5.20
2018-03-30T07:17:17.002Z,5.93
2018-03-30T07:18:16.976Z,6.70
2018-03-30T07:19:16.926Z,5.94
2018-03-30T07:20:16.907Z,5.67
2018-03-30T07:21:16.922Z,6.03
2018-03-30T07:22:16.825Z,6.01
2018-03-30T07:23:16.795Z,6.06
2018-03-30T07:24:16.771Z,6.06
2018-03-30T07:25:16.804Z,6.40
2018-03-30T07:26:16.678Z,6.49
2018-03-30T07:27:16.684Z,5.90
2018-03-30T07:28:16.612Z,6.44
2018-03-30T07:29:16.583Z,6.41
2018-03-30T07:30:16.559Z,6.22
2018-03-30T07:31:16.512Z,6.28
2018-03-30T07:32:16.492Z,6.21
2018-03-30T07:33:16.444Z,6.73
2018-03-30T07:34:16.412Z,7.55
2018-03-30T07:35:16.391Z,8.05
2018-03-30T07:36:16.454Z,9.05
2018-03-30T07:37:16.376Z,9.81
2018-03-30T07:38:16.294Z,9.84
2018-03-30T07:39:16.246Z,9.91
2018-03-30T07:40:16.221Z,9.91
2018-03-30T07:41:16.189Z,9.91
2018-03-30T07:42:16.152Z,9.78
2018-03-30T07:43:16.134Z,9.50
2018-03-30T07:44:16.104Z,9.24
2018-03-30T07:45:16.067Z,9.39
2018-03-30T07:46:16.019Z,10.33
2018-03-30T07:47:15.999Z,10.92
2018-03-30T07:48:15.974Z,9.53
2018-03-30T07:49:15.953Z,7.97
2018-03-30T07:50:15.916Z,7.37
2018-03-30T07:51:15.889Z,7.67
2018-03-30T07:52:15.850Z,8.16
2018-03-30T07:53:15.834Z,8.23
2018-03-30T07:54:15.784Z,7.80
2018-03-30T07:55:15.773Z,7.48
2018-03-30T07:56:15.722Z,6.91
2018-03-30T07:57:15.704Z,6.55
2018-03-30T07:58:15.656Z,6.31
2018-03-30T07:59:15.634Z,6.06
2018-03-30T08:00:15.595Z,6.46
2018-03-30T08:01:15.560Z,6.59
2018-03-30T08:02:15.550Z,6.56
2018-03-30T08:03:15.492Z,6.41
2018-03-30T08:04:15.464Z,6.49
2018-03-30T08:05:15.465Z,6.61
2018-03-30T08:06:15.440Z,6.58
2018-03-30T08:07:15.357Z,6.67
2018-03-30T08:08:15.360Z,6.84
2018-03-30T08:09:15.283Z,6.97
2018-03-30T08:10:15.252Z,6.87
2018-03-30T08:11:15.227Z,6.84
2018-03-30T08:12:15.191Z,6.88
2018-03-30T08:13:15.197Z,6.92
2018-03-30T08:14:15.107Z,6.89
2018-03-30T08:15:15.066Z,7.05
2018-03-30T08:16:15.036Z,7.39
2018-03-30T08:17:15.001Z,7.58
2018-03-30T08:18:14.969Z,8.08
2018-03-30T08:19:14.960Z,8.94
2018-03-30T08:20:14.910Z,9.87
2018-03-30T08:21:14.862Z,9.94
2018-03-30T08:22:14.838Z,10.68
2018-03-30T08:23:14.798Z,11.02
2018-03-30T08:24:14.750Z,11.28
2018-03-30T08:25:14.713Z,10.66
2018-03-30T08:26:14.710Z,10.92
2018-03-30T08:27:14.649Z,10.42
2018-03-30T08:28:14.625Z,10.81
2018-03-30T08:29:14.608Z,11.43
2018-03-30T08:30:14.554Z,11.90
2018-03-30T08:31:14.503Z,11.72
2018-03-30T08:32:14.486Z,11.22
2018-03-30T08:33:14.468Z,10.96
2018-03-30T08:34:14.525Z,10.79
2018-03-30T08:35:14.394Z,11.02
2018-03-30T08:36:14.342Z,10.40
2018-03-30T08:37:14.347Z,10.15
2018-03-30T08:38:14.280Z,10.20
2018-03-30T08:39:14.241Z,10.74
2018-03-30T08:40:14.203Z,11.10
2018-03-30T08:41:14.182Z,10.74
2018-03-30T08:42:14.131Z,10.38
2018-03-30T08:43:14.147Z,10.22
2018-03-30T08:44:14.073Z,10.55
2018-03-30T08:45:14.061Z,10.89
2018-03-30T08:46:14.007Z,10.25
2018-03-30T08:47:13.961Z,10.08
2018-03-30T08:48:13.961Z,10.23
2018-03-30T08:49:13.914Z,10.45
2018-03-30T08:50:13.883Z,10.23
2018-03-30T08:51:13.857Z,10.67
2018-03-30T08:52:13.824Z,11.37
2018-03-30T08:53:13.784Z,11.69
2018-03-30T08:54:13.752Z,11.39
2018-03-30T08:55:13.719Z,10.64
2018-03-30T08:56:13.673Z,10.30
2018-03-30T08:57:13.646Z,9.91
2018-03-30T08:58:13.625Z,9.91
2018-03-30T08:59:13.595Z,10.29
2018-03-30T09:00:13.562Z,10.23
2018-03-30T09:01:13.521Z,10.32
2018-03-30T09:02:13.524Z,10.26
2018-03-30T09:03:13.472Z,10.25
2018-03-30T09:04:13.407Z,10.45
2018-03-30T09:05:13.394Z,11.03
2018-03-30T09:06:13.351Z,10.59
2018-03-30T09:07:13.326Z,10.32
2018-03-30T09:08:13.286Z,10.91
2018-03-30T09:09:13.246Z,11.10
2018-03-30T09:10:13.239Z,11.14
2018-03-30T09:11:13.188Z,11.70
2018-03-30T09:12:13.170Z,11.88
2018-03-30T09:13:13.110Z,13.00
2018-03-30T09:14:13.080Z,13.70
2018-03-30T09:15:13.034Z,13.97
2018-03-30T09:16:13.016Z,14.95
2018-03-30T09:17:13.019Z,14.17
2018-03-30T09:18:12.980Z,13.36
2018-03-30T09:19:12.932Z,13.36
2018-03-30T09:20:12.890Z,12.49
2018-03-30T09:21:12.909Z,12.65
2018-03-30T09:22:12.860Z,12.05
2018-03-30T09:23:12.836Z,12.31
2018-03-30T09:24:12.872Z,12.68
2018-03-30T09:25:12.777Z,13.17
2018-03-30T09:26:12.699Z,14.22
2018-03-30T09:27:12.654Z,14.29
2018-03-30T09:28:12.646Z,14.51
2018-03-30T09:29:12.609Z,14.89
2018-03-30T09:30:12.586Z,15.65
2018-03-30T09:31:12.548Z,14.42
2018-03-30T09:32:12.524Z,14.50
2018-03-30T09:33:12.471Z,15.25
2018-03-30T09:34:12.475Z,16.35
2018-03-30T09:35:12.419Z,16.39
2018-03-30T09:36:12.422Z,14.95
2018-03-30T09:37:12.370Z,15.36
2018-03-30T09:38:12.453Z,15.64
2018-03-30T09:39:12.342Z,15.10
2018-03-30T09:40:12.292Z,15.74
2018-03-30T09:41:12.299Z,16.17
2018-03-30T09:42:12.247Z,15.34
2018-03-30T09:43:12.206Z,16.42
2018-03-30T09:44:12.212Z,16.61
2018-03-30T09:45:12.133Z,15.92
2018-03-30T09:46:12.091Z,16.09
2018-03-30T09:47:12.070Z,15.78
2018-03-30T09:48:12.097Z,15.74
2018-03-30T09:49:12.031Z,16.70
2018-03-30T09:50:12.007Z,17.66
2018-03-30T09:51:11.998Z,17.75
2018-03-30T09:52:11.947Z,18.03
2018-03-30T09:53:11.933Z,16.81
2018-03-30T09:54:11.902Z,16.94
2018-03-30T09:55:11.896Z,16.73
2018-03-30T09:56:11.964Z,16.21
2018-03-30T09:57:11.839Z,15.82
2018-03-30T09:58:11.827Z,15.34
2018-03-30T09:59:11.785Z,15.67
2018-03-30T10:00:11.752Z,16.42
2018-03-30T10:01:11.723Z,16.31
2018-03-30T10:02:11.703Z,16.78
2018-03-30T10:03:11.679Z,16.81
2018-03-30T10:04:11.643Z,15.29
2018-03-30T10:05:11.626Z,14.47
2018-03-30T10:06:11.716Z,14.96
2018-03-30T10:07:11.567Z,14.27
2018-03-30T10:08:11.547Z,13.88
2018-03-30T10:09:11.544Z,14.25
2018-03-30T10:10:11.501Z,15.25
2018-03-30T10:11:11.472Z,15.90
2018-03-30T10:12:11.452Z,15.67
2018-03-30T10:13:11.413Z,16.23
2018-03-30T10:14:11.424Z,15.46
2018-03-30T10:15:11.367Z,15.19
2018-03-30T10:16:11.360Z,14.81
2018-03-30T10:17:11.337Z,15.28
2018-03-30T10:18:11.340Z,15.50
2018-03-30T10:19:11.353Z,16.38
2018-03-30T10:20:11.344Z,15.86
2018-03-30T10:21:11.235Z,16.33
2018-03-30T10:22:11.209Z,16.63
2018-03-30T10:23:11.179Z,15.71
2018-03-30T10:24:11.139Z,15.01
2018-03-30T10:25:11.152Z,15.76
2018-03-30T10:26:11.097Z,16.64
2018-03-30T10:27:11.078Z,15.80
2018-03-30T10:28:11.047Z,14.39
2018-03-30T10:29:11.041Z,14.10
2018-03-30T10:30:11.015Z,14.03
2018-03-30T10:31:10.994Z,14.54
2018-03-30T10:32:10.947Z,15.49
2018-03-30T10:33:10.915Z,15.27
2018-03-30T10:34:10.880Z,15.60
2018-03-30T10:35:10.946Z,16.21
2018-03-30T10:36:10.836Z,16.45
2018-03-30T10:37:10.824Z,15.68
2018-03-30T10:38:10.795Z,15.28
2018-03-30T10:39:10.764Z,15.27
2018-03-30T10:40:10.730Z,16.05
2018-03-30T10:41:10.724Z,15.96
2018-03-30T10:42:10.707Z,15.94
2018-03-30T10:43:10.665Z,15.80
2018-03-30T10:44:10.687Z,15.62
2018-03-30T10:45:10.597Z,16.28
2018-03-30T10:46:10.596Z,16.75
2018-03-30T10:47:10.557Z,16.67
2018-03-30T10:48:10.520Z,15.41
2018-03-30T10:49:10.518Z,14.32
2018-03-30T10:50:10.486Z,13.62
2018-03-30T10:51:10.453Z,13.33
2018-03-30T10:52:10.431Z,13.66
2018-03-30T10:53:10.402Z,14.61
2018-03-30T10:54:10.362Z,15.89
2018-03-30T10:55:10.341Z,15.20
2018-03-30T10:56:10.314Z,15.03
2018-03-30T10:57:10.324Z,14.39
2018-03-30T10:58:10.276Z,15.32
2018-03-30T10:59:10.258Z,16.01
2018-03-30T11:00:10.209Z,16.96
2018-03-30T11:01:10.190Z,16.89
2018-03-30T11:02:10.147Z,17.33
2018-03-30T11:03:10.203Z,16.21
2018-03-30T11:04:10.093Z,15.76
2018-03-30T11:05:10.115Z,14.83
2018-03-30T11:06:10.082Z,15.82
2018-03-30T11:07:10.029Z,15.34
2018-03-30T11:08:10.010Z,14.46
2018-03-30T11:09:09.969Z,14.28
2018-03-30T11:10:09.951Z,14.06
2018-03-30T11:11:09.966Z,14.29
2018-03-30T11:12:09.899Z,14.60
2018-03-30T11:13:09.871Z,14.32
2018-03-30T11:14:09.848Z,14.54
2018-03-30T11:15:09.797Z,14.72
2018-03-30T11:16:09.772Z,14.29
2018-03-30T11:17:09.757Z,13.92
2018-03-30T11:18:09.798Z,13.67
2018-03-30T11:19:09.712Z,13.30
2018-03-30T11:20:09.686Z,13.62
2018-03-30T11:21:09.635Z,13.52
2018-03-30T11:22:09.603Z,14.20
2018-03-30T11:23:09.569Z,13.87
2018-03-30T11:24:09.542Z,13.78
2018-03-30T11:25:09.528Z,13.30
2018-03-30T11:26:09.639Z,13.95
2018-03-30T11:27:09.463Z,13.92
2018-03-30T11:28:09.445Z,13.63
2018-03-30T11:29:09.410Z,13.59
2018-03-30T11:30:09.385Z,13.39
2018-03-30T11:31:09.362Z,13.36
2018-03-30T11:32:09.320Z,13.41
2018-03-30T11:33:09.295Z,13.15
2018-03-30T11:34:09.283Z,13.48
2018-03-30T11:35:09.223Z,13.63
2018-03-30T11:36:09.192Z,13.79
2018-03-30T11:37:09.169Z,14.20
2018-03-30T11:38:09.183Z,13.63
2018-03-30T11:39:09.102Z,13.87
2018-03-30T11:40:09.099Z,13.82
2018-03-30T11:41:09.035Z,13.77
2018-03-30T11:42:09.012Z,14.35
2018-03-30T11:43:08.979Z,15.14
2018-03-30T11:44:08.939Z,15.38
2018-03-30T11:45:08.934Z,15.29
2018-03-30T11:46:08.881Z,15.59
2018-03-30T11:47:08.883Z,15.13
2018-03-30T11:48:08.816Z,14.62
2018-03-30T11:49:08.815Z,14.96
2018-03-30T11:50:08.774Z,14.95
2018-03-30T11:51:08.729Z,15.01
2018-03-30T11:52:08.689Z,14.94
2018-03-30T11:53:08.686Z,15.07
2018-03-30T11:54:08.635Z,14.43
2018-03-30T11:55:08.610Z,15.41
2018-03-30T11:56:08.654Z,15.84
2018-03-30T11:57:08.538Z,15.97
2018-03-30T11:58:08.528Z,16.15
2018-03-30T11:59:08.482Z,16.79
2018-03-30T12:00:08.486Z,15.69
2018-03-30T12:01:08.444Z,15.19
2018-03-30T12:02:08.432Z,14.28
2018-03-30T12:03:08.427Z,13.81
2018-03-30T12:04:08.347Z,14.00
2018-03-30T12:05:08.364Z,14.10
2018-03-30T12:06:08.267Z,15.50
2018-03-30T12:07:08.331Z,16.25
2018-03-30T12:08:08.228Z,16.58
2018-03-30T12:09:08.227Z,16.27
2018-03-30T12:10:08.159Z,15.11
2018-03-30T12:11:08.134Z,14.09
2018-03-30T12:12:08.117Z,13.05
2018-03-30T12:13:08.098Z,13.81
2018-03-30T12:14:08.075Z,14.86
2018-03-30T12:15:08.058Z,14.88
2018-03-30T12:16:07.991Z,15.27
2018-03-30T12:17:07.973Z,15.83
2018-03-30T12:18:07.931Z,15.69
2018-03-30T12:19:07.927Z,15.69
2018-03-30T12:20:07.905Z,15.78
2018-03-30T12:21:07.878Z,16.08
2018-03-30T12:22:07.811Z,16.49
2018-03-30T12:23:07.784Z,15.56
2018-03-30T12:24:07.758Z,14.69
2018-03-30T12:25:07.741Z,14.20
2018-03-30T12:26:07.744Z,13.89
2018-03-30T12:27:07.702Z,14.25
2018-03-30T12:28:07.650Z,14.88
2018-03-30T12:29:07.610Z,14.62
2018-03-30T12:30:07.586Z,15.07
2018-03-30T12:31:07.559Z,15.14
2018-03-30T12:32:07.545Z,15.59
2018-03-30T12:33:07.524Z,15.68
2018-03-30T12:34:07.466Z,15.03
2018-03-30T12:35:07.487Z,14.37
2018-03-30T12:36:07.415Z,14.02
2018-03-30T12:37:07.393Z,13.88
2018-03-30T12:38:07.353Z,15.02
2018-03-30T12:39:07.327Z,15.74
2018-03-30T12:40:07.301Z,16.46
2018-03-30T12:41:07.294Z,16.00
2018-03-30T12:42:07.269Z,16.14
2018-03-30T12:43:07.228Z,16.27
2018-03-30T12:44:07.210Z,15.90
2018-03-30T12:45:07.152Z,16.46
2018-03-30T12:46:07.123Z,16.53
2018-03-30T12:47:07.102Z,16.68
2018-03-30T12:48:07.076Z,16.78
2018-03-30T12:49:07.063Z,16.83
2018-03-30T12:50:07.581Z,16.71
2018-03-30T12:51:07.016Z,17.15
2018-03-30T12:52:06.981Z,16.75
2018-03-30T12:53:06.949Z,16.34
2018-03-30T12:54:06.924Z,16.66
2018-03-30T12:55:06.896Z,16.53
2018-03-30T12:56:06.860Z,15.41
2018-03-30T12:57:06.840Z,14.98
2018-03-30T12:58:06.846Z,15.32
2018-03-30T12:59:06.788Z,15.59
2018-03-30T13:00:06.776Z,15.43
2018-03-30T13:01:06.738Z,15.59
2018-03-30T13:02:06.724Z,15.82
2018-03-30T13:03:06.744Z,16.48
2018-03-30T13:04:06.671Z,16.50